sensor_id;sensor_type;location;lat;lon;timestamp;P1;durP1;ratioP1;P2;durP2;ratioP2
24715;SDS011;12822;50.124;8.678;2023-04-24T00:00:04;2.30;;;1.00;;
24715;SDS011;12822;50.124;8.678;2023-04-24T00:02:48;4.78;;;1.05;;
24715;SDS011;12822;50.124;8.678;2023-04-24T00:05:14;6.88;;;1.70;;
24715;SDS011;12822;50.124;8.678;2023-04-24T00:07:40;4.63;;;1.20;;
24715;SDS011;12822;50.124;8.678;2023-04-24T00:10:07;1.92;;;1.20;;
24715;SDS011;12822;50.124;8.678;2023-04-24T00:12:33;2.83;;;1.20;;
24715;SDS011;12822;50.124;8.678;2023-04-24T00:14:59;4.70;;;1.30;;
24715;SDS011;12822;50.124;8.678;2023-04-24T00:17:25;3.65;;;1.40;;
24715;SDS011;12822;50.124;8.678;2023-04-24T00:19:51;2.13;;;1.30;;
24715;SDS011;12822;50.124;8.678;2023-04-24T00:22:23;2.40;;;1.15;;
24715;SDS011;12822;50.124;8.678;2023-04-24T00:24:49;3.58;;;1.08;;
24715;SDS011;12822;50.124;8.678;2023-04-24T00:27:15;2.13;;;1.20;;
24715;SDS011;12822;50.124;8.678;2023-04-24T00:29:41;2.55;;;1.35;;
24715;SDS011;12822;50.124;8.678;2023-04-24T00:32:07;1.50;;;1.10;;
24715;SDS011;12822;50.124;8.678;2023-04-24T00:34:33;2.55;;;1.30;;
24715;SDS011;12822;50.124;8.678;2023-04-24T00:36:59;3.78;;;1.30;;
24715;SDS011;12822;50.124;8.678;2023-04-24T00:39:25;2.83;;;1.13;;
24715;SDS011;12822;50.124;8.678;2023-04-24T00:41:51;3.03;;;1.15;;
24715;SDS011;12822;50.124;8.678;2023-04-24T00:44:17;4.93;;;1.45;;
24715;SDS011;12822;50.124;8.678;2023-04-24T00:46:43;2.55;;;1.42;;
24715;SDS011;12822;50.124;8.678;2023-04-24T00:49:09;4.05;;;1.55;;
24715;SDS011;12822;50.124;8.678;2023-04-24T00:51:36;4.63;;;1.67;;
24715;SDS011;12822;50.124;8.678;2023-04-24T00:54:02;3.95;;;1.40;;
24715;SDS011;12822;50.124;8.678;2023-04-24T00:56:28;2.03;;;1.48;;
24715;SDS011;12822;50.124;8.678;2023-04-24T00:58:54;4.68;;;1.63;;
24715;SDS011;12822;50.124;8.678;2023-04-24T01:01:21;1.92;;;1.20;;
24715;SDS011;12822;50.124;8.678;2023-04-24T01:03:49;5.35;;;1.35;;
24715;SDS011;12822;50.124;8.678;2023-04-24T01:06:15;5.35;;;1.67;;
24715;SDS011;12822;50.124;8.678;2023-04-24T01:08:42;4.13;;;1.30;;
24715;SDS011;12822;50.124;8.678;2023-04-24T01:11:08;3.47;;;1.45;;
24715;SDS011;12822;50.124;8.678;2023-04-24T01:13:34;2.75;;;1.52;;
24715;SDS011;12822;50.124;8.678;2023-04-24T01:16:01;3.33;;;1.30;;
24715;SDS011;12822;50.124;8.678;2023-04-24T01:18:27;2.45;;;1.38;;
24715;SDS011;12822;50.124;8.678;2023-04-24T01:20:53;3.58;;;1.40;;
24715;SDS011;12822;50.124;8.678;2023-04-24T01:23:20;2.75;;;1.30;;
24715;SDS011;12822;50.124;8.678;2023-04-24T01:25:46;2.45;;;1.30;;
24715;SDS011;12822;50.124;8.678;2023-04-24T01:28:12;7.18;;;1.20;;
24715;SDS011;12822;50.124;8.678;2023-04-24T01:30:39;3.50;;;1.02;;
24715;SDS011;12822;50.124;8.678;2023-04-24T01:33:05;3.97;;;1.10;;
24715;SDS011;12822;50.124;8.678;2023-04-24T01:35:31;1.50;;;0.90;;
24715;SDS011;12822;50.124;8.678;2023-04-24T01:37:57;4.32;;;1.17;;
24715;SDS011;12822;50.124;8.678;2023-04-24T01:40:23;2.45;;;1.05;;
24715;SDS011;12822;50.124;8.678;2023-04-24T01:42:49;5.05;;;1.27;;
24715;SDS011;12822;50.124;8.678;2023-04-24T01:45:16;3.70;;;1.27;;
24715;SDS011;12822;50.124;8.678;2023-04-24T01:47:42;5.60;;;1.30;;
24715;SDS011;12822;50.124;8.678;2023-04-24T01:50:08;6.40;;;1.30;;
24715;SDS011;12822;50.124;8.678;2023-04-24T01:52:34;3.55;;;1.30;;
24715;SDS011;12822;50.124;8.678;2023-04-24T01:55:01;3.60;;;1.33;;
24715;SDS011;12822;50.124;8.678;2023-04-24T01:57:27;2.20;;;1.10;;
24715;SDS011;12822;50.124;8.678;2023-04-24T01:59:55;2.05;;;0.88;;
24715;SDS011;12822;50.124;8.678;2023-04-24T02:02:21;3.47;;;1.27;;
24715;SDS011;12822;50.124;8.678;2023-04-24T02:04:49;3.13;;;1.20;;
24715;SDS011;12822;50.124;8.678;2023-04-24T02:07:15;5.25;;;1.52;;
24715;SDS011;12822;50.124;8.678;2023-04-24T02:09:41;4.28;;;1.10;;
24715;SDS011;12822;50.124;8.678;2023-04-24T02:12:07;2.63;;;1.20;;
24715;SDS011;12822;50.124;8.678;2023-04-24T02:14:33;4.00;;;1.00;;
24715;SDS011;12822;50.124;8.678;2023-04-24T02:16:59;3.80;;;1.50;;
24715;SDS011;12822;50.124;8.678;2023-04-24T02:19:25;7.85;;;1.48;;
24715;SDS011;12822;50.124;8.678;2023-04-24T02:21:52;7.70;;;1.52;;
24715;SDS011;12822;50.124;8.678;2023-04-24T02:24:18;2.33;;;1.10;;
24715;SDS011;12822;50.124;8.678;2023-04-24T02:26:44;4.15;;;1.30;;
24715;SDS011;12822;50.124;8.678;2023-04-24T02:29:10;4.80;;;1.30;;
24715;SDS011;12822;50.124;8.678;2023-04-24T02:31:36;4.55;;;1.40;;
24715;SDS011;12822;50.124;8.678;2023-04-24T02:34:02;1.90;;;1.10;;
24715;SDS011;12822;50.124;8.678;2023-04-24T02:36:28;2.53;;;1.30;;
24715;SDS011;12822;50.124;8.678;2023-04-24T02:38:55;4.13;;;1.27;;
24715;SDS011;12822;50.124;8.678;2023-04-24T02:41:21;3.85;;;1.38;;
24715;SDS011;12822;50.124;8.678;2023-04-24T02:43:47;4.40;;;1.60;;
24715;SDS011;12822;50.124;8.678;2023-04-24T02:46:13;4.20;;;1.30;;
24715;SDS011;12822;50.124;8.678;2023-04-24T02:48:39;4.43;;;1.27;;
24715;SDS011;12822;50.124;8.678;2023-04-24T02:51:05;5.28;;;1.15;;
24715;SDS011;12822;50.124;8.678;2023-04-24T02:53:31;4.55;;;1.52;;
24715;SDS011;12822;50.124;8.678;2023-04-24T02:55:57;6.25;;;1.45;;
24715;SDS011;12822;50.124;8.678;2023-04-24T02:58:24;2.60;;;1.15;;
24715;SDS011;12822;50.124;8.678;2023-04-24T03:00:54;2.33;;;1.00;;
24715;SDS011;12822;50.124;8.678;2023-04-24T03:03:22;3.85;;;1.13;;
24715;SDS011;12822;50.124;8.678;2023-04-24T03:05:49;3.50;;;1.08;;
24715;SDS011;12822;50.124;8.678;2023-04-24T03:08:15;2.97;;;1.15;;
24715;SDS011;12822;50.124;8.678;2023-04-24T03:10:41;2.08;;;1.05;;
24715;SDS011;12822;50.124;8.678;2023-04-24T03:13:07;1.40;;;0.90;;
24715;SDS011;12822;50.124;8.678;2023-04-24T03:15:33;5.28;;;1.02;;
24715;SDS011;12822;50.124;8.678;2023-04-24T03:17:59;2.13;;;0.90;;
24715;SDS011;12822;50.124;8.678;2023-04-24T03:20:25;1.85;;;1.10;;
24715;SDS011;12822;50.124;8.678;2023-04-24T03:22:51;2.80;;;1.23;;
24715;SDS011;12822;50.124;8.678;2023-04-24T03:25:17;2.75;;;0.98;;
24715;SDS011;12822;50.124;8.678;2023-04-24T03:27:43;1.75;;;1.10;;
24715;SDS011;12822;50.124;8.678;2023-04-24T03:30:09;5.03;;;0.82;;
24715;SDS011;12822;50.124;8.678;2023-04-24T03:32:35;4.15;;;0.95;;
24715;SDS011;12822;50.124;8.678;2023-04-24T03:35:01;1.25;;;1.00;;
24715;SDS011;12822;50.124;8.678;2023-04-24T03:37:28;3.42;;;0.98;;
24715;SDS011;12822;50.124;8.678;2023-04-24T03:39:54;4.00;;;1.10;;
24715;SDS011;12822;50.124;8.678;2023-04-24T03:42:20;1.33;;;0.80;;
24715;SDS011;12822;50.124;8.678;2023-04-24T03:44:46;2.55;;;1.02;;
24715;SDS011;12822;50.124;8.678;2023-04-24T03:47:12;1.80;;;1.10;;
24715;SDS011;12822;50.124;8.678;2023-04-24T03:49:38;5.50;;;1.40;;
24715;SDS011;12822;50.124;8.678;2023-04-24T03:52:04;3.42;;;1.17;;
24715;SDS011;12822;50.124;8.678;2023-04-24T03:54:30;2.47;;;0.98;;
24715;SDS011;12822;50.124;8.678;2023-04-24T03:56:56;1.90;;;1.00;;
24715;SDS011;12822;50.124;8.678;2023-04-24T03:59:22;6.63;;;1.13;;
24715;SDS011;12822;50.124;8.678;2023-04-24T04:01:48;3.10;;;1.10;;
24715;SDS011;12822;50.124;8.678;2023-04-24T04:04:14;3.25;;;1.25;;
24715;SDS011;12822;50.124;8.678;2023-04-24T04:06:40;2.55;;;0.80;;
24715;SDS011;12822;50.124;8.678;2023-04-24T04:09:07;6.40;;;1.20;;
24715;SDS011;12822;50.124;8.678;2023-04-24T04:11:33;3.10;;;1.13;;
24715;SDS011;12822;50.124;8.678;2023-04-24T04:14:00;2.83;;;1.02;;
24715;SDS011;12822;50.124;8.678;2023-04-24T04:16:26;2.85;;;0.80;;
24715;SDS011;12822;50.124;8.678;2023-04-24T04:18:52;3.55;;;1.15;;
24715;SDS011;12822;50.124;8.678;2023-04-24T04:21:18;3.03;;;1.10;;
24715;SDS011;12822;50.124;8.678;2023-04-24T04:23:44;1.92;;;1.20;;
24715;SDS011;12822;50.124;8.678;2023-04-24T04:26:10;5.38;;;1.63;;
24715;SDS011;12822;50.124;8.678;2023-04-24T04:28:37;2.08;;;1.15;;
24715;SDS011;12822;50.124;8.678;2023-04-24T04:31:04;4.80;;;1.73;;
24715;SDS011;12822;50.124;8.678;2023-04-24T04:33:32;5.55;;;1.35;;
24715;SDS011;12822;50.124;8.678;2023-04-24T04:35:58;3.28;;;1.20;;
24715;SDS011;12822;50.124;8.678;2023-04-24T04:38:25;3.03;;;1.42;;
24715;SDS011;12822;50.124;8.678;2023-04-24T04:40:54;3.22;;;1.13;;
24715;SDS011;12822;50.124;8.678;2023-04-24T04:43:23;5.32;;;1.30;;
24715;SDS011;12822;50.124;8.678;2023-04-24T04:45:50;2.60;;;1.40;;
24715;SDS011;12822;50.124;8.678;2023-04-24T04:48:16;4.57;;;1.42;;
24715;SDS011;12822;50.124;8.678;2023-04-24T04:50:43;4.68;;;1.60;;
24715;SDS011;12822;50.124;8.678;2023-04-24T04:53:09;5.70;;;1.70;;
24715;SDS011;12822;50.124;8.678;2023-04-24T04:55:36;1.88;;;1.35;;
24715;SDS011;12822;50.124;8.678;2023-04-24T04:58:02;2.15;;;1.40;;
24715;SDS011;12822;50.124;8.678;2023-04-24T05:00:28;2.67;;;1.60;;
24715;SDS011;12822;50.124;8.678;2023-04-24T05:02:59;1.73;;;1.38;;
24715;SDS011;12822;50.124;8.678;2023-04-24T05:05:25;2.60;;;1.70;;
24715;SDS011;12822;50.124;8.678;2023-04-24T05:07:51;3.35;;;1.52;;
24715;SDS011;12822;50.124;8.678;2023-04-24T05:10:17;2.53;;;1.45;;
24715;SDS011;12822;50.124;8.678;2023-04-24T05:12:43;3.65;;;1.80;;
24715;SDS011;12822;50.124;8.678;2023-04-24T05:15:09;3.92;;;2.03;;
24715;SDS011;12822;50.124;8.678;2023-04-24T05:17:36;2.22;;;1.85;;
24715;SDS011;12822;50.124;8.678;2023-04-24T05:20:03;5.05;;;2.00;;
24715;SDS011;12822;50.124;8.678;2023-04-24T05:22:30;3.45;;;1.90;;
24715;SDS011;12822;50.124;8.678;2023-04-24T05:24:56;6.07;;;1.90;;
24715;SDS011;12822;50.124;8.678;2023-04-24T05:27:22;3.25;;;1.75;;
24715;SDS011;12822;50.124;8.678;2023-04-24T05:29:48;2.83;;;2.00;;
24715;SDS011;12822;50.124;8.678;2023-04-24T05:32:14;7.82;;;2.63;;
24715;SDS011;12822;50.124;8.678;2023-04-24T05:34:40;2.35;;;1.70;;
24715;SDS011;12822;50.124;8.678;2023-04-24T05:37:06;4.82;;;2.17;;
24715;SDS011;12822;50.124;8.678;2023-04-24T05:39:35;4.47;;;2.30;;
24715;SDS011;12822;50.124;8.678;2023-04-24T05:42:01;2.92;;;1.85;;
24715;SDS011;12822;50.124;8.678;2023-04-24T05:44:28;3.72;;;1.98;;
24715;SDS011;12822;50.124;8.678;2023-04-24T05:46:54;3.38;;;2.42;;
24715;SDS011;12822;50.124;8.678;2023-04-24T05:49:21;7.28;;;2.30;;
24715;SDS011;12822;50.124;8.678;2023-04-24T05:51:47;6.47;;;2.17;;
24715;SDS011;12822;50.124;8.678;2023-04-24T05:54:13;3.88;;;2.25;;
24715;SDS011;12822;50.124;8.678;2023-04-24T05:56:39;3.17;;;2.55;;
24715;SDS011;12822;50.124;8.678;2023-04-24T05:59:05;3.63;;;2.95;;
24715;SDS011;12822;50.124;8.678;2023-04-24T06:01:32;3.83;;;2.40;;
24715;SDS011;12822;50.124;8.678;2023-04-24T06:04:04;3.10;;;2.30;;
24715;SDS011;12822;50.124;8.678;2023-04-24T06:06:30;2.53;;;2.00;;
24715;SDS011;12822;50.124;8.678;2023-04-24T06:08:57;6.88;;;2.03;;
24715;SDS011;12822;50.124;8.678;2023-04-24T06:11:23;4.93;;;2.33;;
24715;SDS011;12822;50.124;8.678;2023-04-24T06:13:50;2.92;;;2.17;;
24715;SDS011;12822;50.124;8.678;2023-04-24T06:16:17;4.57;;;2.30;;
24715;SDS011;12822;50.124;8.678;2023-04-24T06:18:43;3.63;;;2.20;;
24715;SDS011;12822;50.124;8.678;2023-04-24T06:21:09;7.88;;;2.42;;
24715;SDS011;12822;50.124;8.678;2023-04-24T06:23:35;11.70;;;2.10;;
24715;SDS011;12822;50.124;8.678;2023-04-24T06:26:01;4.88;;;2.50;;
24715;SDS011;12822;50.124;8.678;2023-04-24T06:28:27;5.47;;;2.58;;
24715;SDS011;12822;50.124;8.678;2023-04-24T06:30:53;3.97;;;2.20;;
24715;SDS011;12822;50.124;8.678;2023-04-24T06:33:19;5.20;;;2.30;;
24715;SDS011;12822;50.124;8.678;2023-04-24T06:35:45;4.47;;;2.63;;
24715;SDS011;12822;50.124;8.678;2023-04-24T06:38:11;4.38;;;2.22;;
24715;SDS011;12822;50.124;8.678;2023-04-24T06:40:37;4.60;;;2.33;;
24715;SDS011;12822;50.124;8.678;2023-04-24T06:43:03;6.07;;;2.75;;
24715;SDS011;12822;50.124;8.678;2023-04-24T06:45:29;4.03;;;2.97;;
24715;SDS011;12822;50.124;8.678;2023-04-24T06:47:55;3.53;;;2.60;;
24715;SDS011;12822;50.124;8.678;2023-04-24T06:50:21;3.30;;;2.60;;
24715;SDS011;12822;50.124;8.678;2023-04-24T06:52:47;5.53;;;2.90;;
24715;SDS011;12822;50.124;8.678;2023-04-24T06:55:13;4.25;;;2.65;;
24715;SDS011;12822;50.124;8.678;2023-04-24T06:57:41;7.82;;;2.72;;
24715;SDS011;12822;50.124;8.678;2023-04-24T07:00:07;4.40;;;2.58;;
24715;SDS011;12822;50.124;8.678;2023-04-24T07:02:34;3.95;;;2.70;;
24715;SDS011;12822;50.124;8.678;2023-04-24T07:05:00;3.30;;;2.33;;
24715;SDS011;12822;50.124;8.678;2023-04-24T07:07:26;4.53;;;2.17;;
24715;SDS011;12822;50.124;8.678;2023-04-24T07:09:53;4.22;;;2.42;;
24715;SDS011;12822;50.124;8.678;2023-04-24T07:12:19;4.43;;;2.33;;
24715;SDS011;12822;50.124;8.678;2023-04-24T07:14:46;8.80;;;2.70;;
24715;SDS011;12822;50.124;8.678;2023-04-24T07:17:13;3.47;;;2.28;;
24715;SDS011;12822;50.124;8.678;2023-04-24T07:19:39;2.95;;;2.50;;
24715;SDS011;12822;50.124;8.678;2023-04-24T07:22:05;7.35;;;2.65;;
24715;SDS011;12822;50.124;8.678;2023-04-24T07:24:31;7.55;;;3.25;;
24715;SDS011;12822;50.124;8.678;2023-04-24T07:26:57;5.82;;;2.38;;
24715;SDS011;12822;50.124;8.678;2023-04-24T07:29:23;4.53;;;2.80;;
24715;SDS011;12822;50.124;8.678;2023-04-24T07:31:49;5.65;;;2.90;;
24715;SDS011;12822;50.124;8.678;2023-04-24T07:34:15;6.05;;;2.67;;
24715;SDS011;12822;50.124;8.678;2023-04-24T07:36:41;4.57;;;2.40;;
24715;SDS011;12822;50.124;8.678;2023-04-24T07:39:08;6.05;;;2.88;;
24715;SDS011;12822;50.124;8.678;2023-04-24T07:41:34;4.70;;;2.92;;
24715;SDS011;12822;50.124;8.678;2023-04-24T07:44:00;5.60;;;2.40;;
24715;SDS011;12822;50.124;8.678;2023-04-24T07:46:26;5.85;;;2.30;;
24715;SDS011;12822;50.124;8.678;2023-04-24T07:48:54;5.82;;;2.50;;
24715;SDS011;12822;50.124;8.678;2023-04-24T07:51:20;8.10;;;2.60;;
24715;SDS011;12822;50.124;8.678;2023-04-24T07:53:47;4.18;;;2.40;;
24715;SDS011;12822;50.124;8.678;2023-04-24T07:56:12;3.42;;;2.00;;
24715;SDS011;12822;50.124;8.678;2023-04-24T07:58:39;3.53;;;2.30;;
24715;SDS011;12822;50.124;8.678;2023-04-24T08:01:05;3.92;;;2.25;;
24715;SDS011;12822;50.124;8.678;2023-04-24T08:03:31;7.03;;;2.42;;
24715;SDS011;12822;50.124;8.678;2023-04-24T08:05:57;7.57;;;2.33;;
24715;SDS011;12822;50.124;8.678;2023-04-24T08:08:23;3.90;;;2.53;;
24715;SDS011;12822;50.124;8.678;2023-04-24T08:10:49;3.15;;;2.47;;
24715;SDS011;12822;50.124;8.678;2023-04-24T08:13:15;4.20;;;2.80;;
24715;SDS011;12822;50.124;8.678;2023-04-24T08:15:41;3.72;;;2.40;;
24715;SDS011;12822;50.124;8.678;2023-04-24T08:18:07;5.60;;;2.20;;
24715;SDS011;12822;50.124;8.678;2023-04-24T08:20:33;10.93;;;2.50;;
24715;SDS011;12822;50.124;8.678;2023-04-24T08:23:00;7.80;;;2.78;;
24715;SDS011;12822;50.124;8.678;2023-04-24T08:25:26;13.90;;;2.88;;
24715;SDS011;12822;50.124;8.678;2023-04-24T08:27:52;3.45;;;2.40;;
24715;SDS011;12822;50.124;8.678;2023-04-24T08:30:18;16.00;;;2.78;;
24715;SDS011;12822;50.124;8.678;2023-04-24T08:32:44;5.40;;;2.50;;
24715;SDS011;12822;50.124;8.678;2023-04-24T08:35:10;4.18;;;2.30;;
24715;SDS011;12822;50.124;8.678;2023-04-24T08:37:36;6.75;;;2.28;;
24715;SDS011;12822;50.124;8.678;2023-04-24T08:40:06;5.47;;;2.70;;
24715;SDS011;12822;50.124;8.678;2023-04-24T08:42:32;8.30;;;2.50;;
24715;SDS011;12822;50.124;8.678;2023-04-24T08:45:00;11.25;;;2.80;;
24715;SDS011;12822;50.124;8.678;2023-04-24T08:47:27;4.70;;;2.28;;
24715;SDS011;12822;50.124;8.678;2023-04-24T08:49:54;6.72;;;2.47;;
24715;SDS011;12822;50.124;8.678;2023-04-24T08:52:21;4.70;;;2.65;;
24715;SDS011;12822;50.124;8.678;2023-04-24T08:54:47;11.80;;;3.03;;
24715;SDS011;12822;50.124;8.678;2023-04-24T08:57:14;4.45;;;2.50;;
24715;SDS011;12822;50.124;8.678;2023-04-24T08:59:40;7.10;;;2.30;;
24715;SDS011;12822;50.124;8.678;2023-04-24T09:02:06;5.38;;;2.47;;
24715;SDS011;12822;50.124;8.678;2023-04-24T09:04:35;4.50;;;2.38;;
24715;SDS011;12822;50.124;8.678;2023-04-24T09:07:01;8.98;;;2.33;;
24715;SDS011;12822;50.124;8.678;2023-04-24T09:09:28;6.28;;;2.72;;
24715;SDS011;12822;50.124;8.678;2023-04-24T09:11:56;4.30;;;2.42;;
24715;SDS011;12822;50.124;8.678;2023-04-24T09:14:22;6.50;;;2.67;;
24715;SDS011;12822;50.124;8.678;2023-04-24T09:16:49;4.05;;;2.70;;
24715;SDS011;12822;50.124;8.678;2023-04-24T09:19:15;8.13;;;2.78;;
24715;SDS011;12822;50.124;8.678;2023-04-24T09:21:41;6.35;;;2.25;;
24715;SDS011;12822;50.124;8.678;2023-04-24T09:24:17;5.18;;;2.50;;
24715;SDS011;12822;50.124;8.678;2023-04-24T09:26:45;4.20;;;2.22;;
24715;SDS011;12822;50.124;8.678;2023-04-24T09:29:15;2.80;;;2.30;;
24715;SDS011;12822;50.124;8.678;2023-04-24T09:31:42;4.30;;;2.38;;
24715;SDS011;12822;50.124;8.678;2023-04-24T09:34:08;6.97;;;2.35;;
24715;SDS011;12822;50.124;8.678;2023-04-24T09:36:35;4.05;;;2.42;;
24715;SDS011;12822;50.124;8.678;2023-04-24T09:39:05;3.80;;;2.42;;
24715;SDS011;12822;50.124;8.678;2023-04-24T09:41:33;3.80;;;2.38;;
24715;SDS011;12822;50.124;8.678;2023-04-24T09:44:13;16.52;;;3.10;;
24715;SDS011;12822;50.124;8.678;2023-04-24T09:46:40;7.82;;;2.78;;
24715;SDS011;12822;50.124;8.678;2023-04-24T09:49:10;7.20;;;2.60;;
24715;SDS011;12822;50.124;8.678;2023-04-24T09:51:36;5.93;;;2.20;;
24715;SDS011;12822;50.124;8.678;2023-04-24T09:54:03;6.22;;;2.92;;
24715;SDS011;12822;50.124;8.678;2023-04-24T09:56:33;3.35;;;2.10;;
24715;SDS011;12822;50.124;8.678;2023-04-24T09:59:06;6.15;;;2.45;;
24715;SDS011;12822;50.124;8.678;2023-04-24T10:01:33;12.75;;;2.65;;
24715;SDS011;12822;50.124;8.678;2023-04-24T10:03:59;5.85;;;2.33;;
24715;SDS011;12822;50.124;8.678;2023-04-24T10:06:35;3.28;;;2.13;;
24715;SDS011;12822;50.124;8.678;2023-04-24T10:09:01;4.20;;;2.30;;
24715;SDS011;12822;50.124;8.678;2023-04-24T10:11:28;5.53;;;2.20;;
24715;SDS011;12822;50.124;8.678;2023-04-24T10:13:55;6.03;;;1.92;;
24715;SDS011;12822;50.124;8.678;2023-04-24T10:16:22;6.07;;;2.60;;
24715;SDS011;12822;50.124;8.678;2023-04-24T10:18:48;5.15;;;2.15;;
24715;SDS011;12822;50.124;8.678;2023-04-24T10:21:15;2.28;;;1.70;;
24715;SDS011;12822;50.124;8.678;2023-04-24T10:23:42;3.67;;;2.28;;
24715;SDS011;12822;50.124;8.678;2023-04-24T10:26:10;4.13;;;2.08;;
24715;SDS011;12822;50.124;8.678;2023-04-24T10:31:08;3.45;;;2.15;;
24715;SDS011;12822;50.124;8.678;2023-04-24T10:33:35;11.23;;;2.42;;
24715;SDS011;12822;50.124;8.678;2023-04-24T10:36:01;4.72;;;2.22;;
24715;SDS011;12822;50.124;8.678;2023-04-24T10:38:27;5.07;;;2.38;;
24715;SDS011;12822;50.124;8.678;2023-04-24T10:40:57;5.22;;;2.63;;
24715;SDS011;12822;50.124;8.678;2023-04-24T10:43:23;5.18;;;2.53;;
24715;SDS011;12822;50.124;8.678;2023-04-24T10:46:01;4.70;;;3.13;;
24715;SDS011;12822;50.124;8.678;2023-04-24T10:48:28;4.60;;;2.55;;
24715;SDS011;12822;50.124;8.678;2023-04-24T10:50:54;6.32;;;2.53;;
24715;SDS011;12822;50.124;8.678;2023-04-24T10:53:22;4.43;;;2.75;;
24715;SDS011;12822;50.124;8.678;2023-04-24T10:55:52;6.20;;;2.80;;
24715;SDS011;12822;50.124;8.678;2023-04-24T10:58:22;7.22;;;2.60;;
24715;SDS011;12822;50.124;8.678;2023-04-24T11:00:55;7.82;;;2.22;;
24715;SDS011;12822;50.124;8.678;2023-04-24T11:03:23;2.58;;;1.95;;
24715;SDS011;12822;50.124;8.678;2023-04-24T11:08:29;4.85;;;2.38;;
24715;SDS011;12822;50.124;8.678;2023-04-24T11:10:56;5.15;;;2.00;;
24715;SDS011;12822;50.124;8.678;2023-04-24T11:13:24;3.63;;;1.90;;
24715;SDS011;12822;50.124;8.678;2023-04-24T11:18:38;3.80;;;1.70;;
24715;SDS011;12822;50.124;8.678;2023-04-24T11:21:11;2.67;;;1.67;;
24715;SDS011;12822;50.124;8.678;2023-04-24T11:23:38;4.20;;;1.83;;
24715;SDS011;12822;50.124;8.678;2023-04-24T11:26:17;1.42;;;1.30;;
24715;SDS011;12822;50.124;8.678;2023-04-24T11:28:44;4.05;;;1.48;;
24715;SDS011;12822;50.124;8.678;2023-04-24T11:34:13;5.53;;;1.38;;
24715;SDS011;12822;50.124;8.678;2023-04-24T11:36:40;4.72;;;1.55;;
24715;SDS011;12822;50.124;8.678;2023-04-24T11:39:08;2.15;;;1.40;;
24715;SDS011;12822;50.124;8.678;2023-04-24T11:41:36;2.72;;;1.30;;
24715;SDS011;12822;50.124;8.678;2023-04-24T11:44:03;2.72;;;1.38;;
24715;SDS011;12822;50.124;8.678;2023-04-24T11:46:31;2.28;;;1.60;;
24715;SDS011;12822;50.124;8.678;2023-04-24T11:48:57;2.65;;;1.50;;
24715;SDS011;12822;50.124;8.678;2023-04-24T11:51:23;2.83;;;1.20;;
24715;SDS011;12822;50.124;8.678;2023-04-24T11:53:53;10.05;;;1.95;;
24715;SDS011;12822;50.124;8.678;2023-04-24T11:56:19;2.42;;;1.50;;
24715;SDS011;12822;50.124;8.678;2023-04-24T11:58:45;2.88;;;1.40;;
24715;SDS011;12822;50.124;8.678;2023-04-24T12:01:12;4.63;;;1.45;;
24715;SDS011;12822;50.124;8.678;2023-04-24T12:03:38;4.38;;;1.60;;
24715;SDS011;12822;50.124;8.678;2023-04-24T12:06:05;3.85;;;1.83;;
24715;SDS011;12822;50.124;8.678;2023-04-24T12:08:32;5.07;;;2.20;;
24715;SDS011;12822;50.124;8.678;2023-04-24T12:11:02;4.28;;;1.80;;
24715;SDS011;12822;50.124;8.678;2023-04-24T12:13:29;6.88;;;2.60;;
24715;SDS011;12822;50.124;8.678;2023-04-24T12:15:56;10.55;;;2.60;;
24715;SDS011;12822;50.124;8.678;2023-04-24T12:18:23;5.90;;;1.88;;
24715;SDS011;12822;50.124;8.678;2023-04-24T12:20:49;9.93;;;2.35;;
24715;SDS011;12822;50.124;8.678;2023-04-24T12:23:15;4.55;;;3.17;;
24715;SDS011;12822;50.124;8.678;2023-04-24T12:25:42;11.07;;;3.22;;
24715;SDS011;12822;50.124;8.678;2023-04-24T12:28:11;19.92;;;2.70;;
24715;SDS011;12822;50.124;8.678;2023-04-24T12:30:39;30.67;;;2.72;;
24715;SDS011;12822;50.124;8.678;2023-04-24T12:33:06;160.43;;;10.32;;
24715;SDS011;12822;50.124;8.678;2023-04-24T12:35:32;27.95;;;2.97;;
24715;SDS011;12822;50.124;8.678;2023-04-24T12:38:07;33.47;;;3.45;;
24715;SDS011;12822;50.124;8.678;2023-04-24T12:40:33;26.27;;;3.00;;
24715;SDS011;12822;50.124;8.678;2023-04-24T12:42:59;22.73;;;2.97;;
24715;SDS011;12822;50.124;8.678;2023-04-24T12:45:25;6.82;;;1.80;;
24715;SDS011;12822;50.124;8.678;2023-04-24T12:47:52;6.97;;;2.05;;
24715;SDS011;12822;50.124;8.678;2023-04-24T12:50:19;6.25;;;1.90;;
24715;SDS011;12822;50.124;8.678;2023-04-24T12:52:45;8.15;;;2.53;;
24715;SDS011;12822;50.124;8.678;2023-04-24T12:55:11;9.27;;;2.80;;
24715;SDS011;12822;50.124;8.678;2023-04-24T12:57:37;13.43;;;2.83;;
24715;SDS011;12822;50.124;8.678;2023-04-24T13:00:05;53.15;;;6.03;;
24715;SDS011;12822;50.124;8.678;2023-04-24T13:02:31;9.25;;;2.58;;
24715;SDS011;12822;50.124;8.678;2023-04-24T13:04:57;23.92;;;3.97;;
24715;SDS011;12822;50.124;8.678;2023-04-24T13:07:23;106.35;;;8.25;;
24715;SDS011;12822;50.124;8.678;2023-04-24T13:09:50;53.20;;;5.32;;
24715;SDS011;12822;50.124;8.678;2023-04-24T13:12:17;55.92;;;5.20;;
24715;SDS011;12822;50.124;8.678;2023-04-24T13:14:43;14.13;;;2.65;;
24715;SDS011;12822;50.124;8.678;2023-04-24T13:17:10;76.93;;;6.07;;
24715;SDS011;12822;50.124;8.678;2023-04-24T13:19:37;177.13;;;10.40;;
24715;SDS011;12822;50.124;8.678;2023-04-24T13:22:04;112.38;;;8.98;;
24715;SDS011;12822;50.124;8.678;2023-04-24T13:24:30;34.30;;;4.03;;
24715;SDS011;12822;50.124;8.678;2023-04-24T13:26:56;85.90;;;7.57;;
24715;SDS011;12822;50.124;8.678;2023-04-24T13:29:22;136.50;;;11.02;;
24715;SDS011;12822;50.124;8.678;2023-04-24T13:31:52;50.20;;;5.60;;
24715;SDS011;12822;50.124;8.678;2023-04-24T13:34:21;63.92;;;5.85;;
24715;SDS011;12822;50.124;8.678;2023-04-24T13:36:48;72.97;;;6.47;;
24715;SDS011;12822;50.124;8.678;2023-04-24T13:39:15;58.45;;;6.90;;
24715;SDS011;12822;50.124;8.678;2023-04-24T13:41:41;18.30;;;3.53;;
24715;SDS011;12822;50.124;8.678;2023-04-24T13:44:07;20.05;;;3.50;;
24715;SDS011;12822;50.124;8.678;2023-04-24T13:46:33;24.13;;;3.80;;
24715;SDS011;12822;50.124;8.678;2023-04-24T13:49:00;24.48;;;3.17;;
24715;SDS011;12822;50.124;8.678;2023-04-24T13:51:26;18.92;;;3.67;;
24715;SDS011;12822;50.124;8.678;2023-04-24T13:53:52;8.18;;;2.72;;
24715;SDS011;12822;50.124;8.678;2023-04-24T13:56:18;46.83;;;4.57;;
24715;SDS011;12822;50.124;8.678;2023-04-24T13:58:45;6.72;;;2.42;;
24715;SDS011;12822;50.124;8.678;2023-04-24T14:01:11;4.63;;;2.70;;
24715;SDS011;12822;50.124;8.678;2023-04-24T14:03:38;5.47;;;2.90;;
24715;SDS011;12822;50.124;8.678;2023-04-24T14:06:04;5.40;;;2.60;;
24715;SDS011;12822;50.124;8.678;2023-04-24T14:08:31;27.27;;;3.83;;
24715;SDS011;12822;50.124;8.678;2023-04-24T14:10:57;45.47;;;4.72;;
24715;SDS011;12822;50.124;8.678;2023-04-24T14:13:23;7.93;;;2.75;;
24715;SDS011;12822;50.124;8.678;2023-04-24T14:15:51;9.93;;;2.67;;
24715;SDS011;12822;50.124;8.678;2023-04-24T14:18:17;20.60;;;3.53;;
24715;SDS011;12822;50.124;8.678;2023-04-24T14:20:44;53.60;;;4.70;;
24715;SDS011;12822;50.124;8.678;2023-04-24T14:23:10;52.55;;;5.47;;
24715;SDS011;12822;50.124;8.678;2023-04-24T14:25:36;42.80;;;5.15;;
24715;SDS011;12822;50.124;8.678;2023-04-24T14:28:02;17.52;;;3.60;;
24715;SDS011;12822;50.124;8.678;2023-04-24T14:30:28;8.30;;;2.88;;
24715;SDS011;12822;50.124;8.678;2023-04-24T14:32:54;19.92;;;3.95;;
24715;SDS011;12822;50.124;8.678;2023-04-24T14:35:20;5.00;;;2.83;;
24715;SDS011;12822;50.124;8.678;2023-04-24T14:37:46;28.33;;;4.80;;
24715;SDS011;12822;50.124;8.678;2023-04-24T14:40:13;21.45;;;4.05;;
24715;SDS011;12822;50.124;8.678;2023-04-24T14:42:39;7.93;;;3.03;;
24715;SDS011;12822;50.124;8.678;2023-04-24T14:45:05;32.28;;;3.80;;
24715;SDS011;12822;50.124;8.678;2023-04-24T14:47:32;65.50;;;7.60;;
24715;SDS011;12822;50.124;8.678;2023-04-24T14:49:58;16.25;;;3.40;;
24715;SDS011;12822;50.124;8.678;2023-04-24T14:52:24;14.43;;;3.85;;